Time;durP1;ratioP1;P1;durP2;ratioP2;P2;SDS_P1;SDS_P2;PMS_P1;PMS_P2;Temp;Humidity;BMP_temperature;BMP_pressure;BME280_temperature;BME280_humidity;BME280_pressure;Samples;Min_cycle;Max_cycle;Signal;HPM_P1;HPM_P2
2021/11/21 00:02:16;;;;;;;44.25;26.50;;;;;;;2.98;77.35;94468.02;1689455;83;21448;-55
2021/11/21 00:04:44;;;;;;;44.40;25.40;;;;;;;2.96;77.51;94467.08;1689642;83;20997;-56
2021/11/21 00:07:11;;;;;;;44.73;25.75;;;;;;;2.96;77.46;94469.80;1681057;83;20965;-56
2021/11/21 00:09:39;;;;;;;60.05;31.95;;;;;;;2.93;77.30;94465.75;1689716;83;21211;-57
2021/11/21 00:12:06;;;;;;;49.70;30.23;;;;;;;2.90;77.16;94466.56;1687024;83;21048;-56
2021/11/21 00:14:35;;;;;;;43.78;25.02;;;;;;;2.84;77.16;94461.40;1692133;83;21547;-55
2021/11/21 00:17:07;;;;;;;43.00;26.33;;;;;;;2.83;77.34;94455.78;1703069;83;21091;-55
2021/11/21 00:19:31;;;;;;;43.55;26.27;;;;;;;2.83;77.33;94453.07;1695683;83;21566;-55
2021/11/21 00:22:00;;;;;;;36.25;23.80;;;;;;;2.79;77.07;94449.59;1682308;83;21221;-56
2021/11/21 00:24:28;;;;;;;34.50;20.97;;;;;;;2.74;77.17;94444.62;1685549;83;21432;-54
2021/11/21 00:26:56;;;;;;;31.80;20.82;;;;;;;2.73;77.13;94440.36;1682579;83;21091;-55
2021/11/21 00:29:24;;;;;;;40.65;22.70;;;;;;;2.72;77.26;94439.58;1698139;83;21044;-56
2021/11/21 00:31:51;;;;;;;49.85;28.42;;;;;;;2.76;77.50;94451.20;1694027;84;20957;-55
2021/11/21 00:34:20;;;;;;;57.33;28.23;;;;;;;2.74;76.95;94441.91;1692458;83;21151;-54
2021/11/21 00:36:48;;;;;;;45.98;25.92;;;;;;;2.60;77.12;94437.97;1692268;83;21079;-55
2021/11/21 00:39:15;;;;;;;41.18;25.50;;;;;;;2.58;77.35;94443.04;1687612;83;21023;-55
2021/11/21 00:41:43;;;;;;;47.48;26.70;;;;;;;2.58;77.15;94443.04;1697762;83;21015;-56
2021/11/21 00:44:10;;;;;;;47.50;27.05;;;;;;;2.52;76.89;94439.23;1697481;83;20941;-55
2021/11/21 00:46:38;;;;;;;52.30;29.12;;;;;;;2.41;76.88;94429.05;1695640;83;21063;-55
2021/11/21 00:49:11;;;;;;;48.25;30.52;;;;;;;2.38;77.23;94432.00;1702571;83;21187;-56
2021/11/21 00:51:35;;;;;;;62.45;36.90;;;;;;;2.39;77.27;94432.76;1675864;83;21538;-55
2021/11/21 00:54:08;;;;;;;72.32;40.63;;;;;;;2.39;77.18;94432.76;1691446;84;21025;-56
2021/11/21 00:56:34;;;;;;;59.95;36.88;;;;;;;2.37;77.08;94431.03;1682791;83;21452;-55
2021/11/21 00:59:01;;;;;;;56.40;34.08;;;;;;;2.36;77.25;94426.78;1706280;83;21968;-55
2021/11/21 01:01:28;;;;;;;69.72;39.15;;;;;;;2.35;76.89;94422.53;1680949;83;21567;-56
2021/11/21 01:03:56;;;;;;;61.95;35.92;;;;;;;2.21;77.11;94421.30;1673770;83;21539;-55
2021/11/21 01:06:24;;;;;;;68.33;36.83;;;;;;;2.16;77.22;94410.28;1685940;83;21057;-55
2021/11/21 01:08:52;;;;;;;61.63;35.58;;;;;;;2.11;77.29;94409.97;1692554;83;21063;-55
2021/11/21 01:11:19;;;;;;;60.03;34.73;;;;;;;2.00;77.35;94402.50;1712982;83;21135;-55
2021/11/21 01:13:46;;;;;;;58.45;34.00;;;;;;;1.96;77.98;94407.19;1687712;83;21561;-56
2021/11/21 01:16:15;;;;;;;56.40;31.30;;;;;;;1.91;77.80;94409.74;1708221;83;21048;-56
2021/11/21 01:18:44;;;;;;;58.73;34.20;;;;;;;1.85;77.99;94408.64;1688351;83;21229;-54
2021/11/21 01:21:12;;;;;;;50.83;27.55;;;;;;;1.82;78.02;94405.95;1695508;83;21048;-56
2021/11/21 01:23:39;;;;;;;59.03;30.43;;;;;;;1.75;78.08;94403.30;1702314;83;21141;-55
2021/11/21 01:26:07;;;;;;;53.73;29.65;;;;;;;1.64;77.99;94403.17;1704101;83;20973;-54
2021/11/21 01:28:34;;;;;;;50.85;30.77;;;;;;;1.53;78.49;94388.34;1703560;83;21024;-56
2021/11/21 01:31:01;;;;;;;56.18;30.75;;;;;;;1.52;78.92;94388.16;1677858;83;21500;-56
2021/11/21 01:33:29;;;;;;;53.70;28.75;;;;;;;1.55;79.00;94383.32;1675286;83;21095;-57
2021/11/21 01:35:56;;;;;;;46.68;27.85;;;;;;;1.54;78.87;94387.17;1692308;83;21915;-55
2021/11/21 01:38:24;;;;;;;56.48;28.62;;;;;;;1.48;78.64;94394.20;1685301;83;21567;-56
2021/11/21 01:40:51;;;;;;;70.78;32.20;;;;;;;1.45;78.84;94379.30;1674982;83;21028;-56
2021/11/21 01:43:18;;;;;;;62.35;34.55;;;;;;;1.44;79.14;94381.26;1689169;83;21425;-55
2021/11/21 01:45:45;;;;;;;66.87;34.00;;;;;;;1.47;78.88;94388.59;1688538;83;21020;-56
2021/11/21 01:48:13;;;;;;;61.65;31.85;;;;;;;1.44;78.88;94374.48;1682271;84;21171;-57
2021/11/21 01:50:41;;;;;;;51.85;30.68;;;;;;;1.38;78.97;94370.66;1682596;83;20981;-56
2021/11/21 01:53:09;;;;;;;52.25;30.60;;;;;;;1.33;79.02;94368.36;1697319;83;21016;-56
2021/11/21 01:55:37;;;;;;;73.65;36.45;;;;;;;1.33;79.22;94362.94;1683840;83;21036;-56
2021/11/21 01:58:05;;;;;;;64.55;34.08;;;;;;;1.24;79.32;94368.61;1686885;83;21190;-56
2021/11/21 02:00:37;;;;;;;63.23;33.30;;;;;;;1.20;79.53;94361.88;1700735;83;21556;-55
2021/11/21 02:03:04;;;;;;;68.45;35.25;;;;;;;1.20;79.72;94367.30;1691838;83;21025;-56
2021/11/21 02:05:32;;;;;;;60.55;32.50;;;;;;;1.18;79.70;94360.13;1695259;83;21516;-56
2021/11/21 02:07:59;;;;;;;50.95;29.87;;;;;;;1.18;79.87;94352.00;1688022;83;21049;-56
2021/11/21 02:10:26;;;;;;;60.03;32.55;;;;;;;1.17;79.50;94342.34;1701469;83;20996;-55
2021/11/21 02:12:53;;;;;;;69.62;36.83;;;;;;;1.13;79.73;94342.95;1687039;83;21869;-54
2021/11/21 02:15:23;;;;;;;63.68;32.75;;;;;;;1.13;79.71;94332.72;1703488;83;21047;-55
2021/11/21 02:17:52;;;;;;;64.47;33.85;;;;;;;1.12;79.85;94324.41;1697489;83;21606;-56
2021/11/21 02:20:38;;;;;;;69.42;35.45;;;;;;;1.02;79.67;94312.48;1704353;83;21024;-55
2021/11/21 02:23:08;;;;;;;65.62;36.23;;;;;;;0.93;79.98;94312.13;1684224;83;21170;-56
2021/11/21 02:25:36;;;;;;;76.15;40.98;;;;;;;0.90;79.99;94304.81;1706211;83;21142;-56
2021/11/21 02:28:05;;;;;;;75.28;38.15;;;;;;;0.90;80.41;94302.09;1689227;83;21024;-57
2021/11/21 02:30:32;;;;;;;72.58;38.15;;;;;;;0.94;80.33;94298.78;1674112;83;21579;-55
2021/11/21 02:32:59;;;;;;;62.13;35.17;;;;;;;0.98;80.54;94303.58;1694013;83;21060;-57
2021/11/21 02:35:26;;;;;;;59.88;35.40;;;;;;;1.01;80.22;94302.03;1682717;83;20987;-56
2021/11/21 02:37:53;;;;;;;62.67;32.30;;;;;;;1.01;80.05;94293.34;1691233;83;21152;-56
2021/11/21 02:40:21;;;;;;;73.70;40.23;;;;;;;1.03;79.86;94295.06;1683631;83;21002;-56
2021/11/21 02:42:48;;;;;;;78.15;39.83;;;;;;;1.05;79.66;94298.14;1705207;83;21024;-55
2021/11/21 02:45:18;;;;;;;80.05;44.35;;;;;;;0.97;79.17;94298.58;1674605;83;21662;-55
2021/11/21 02:47:46;;;;;;;85.50;43.98;;;;;;;0.82;79.24;94287.08;1691119;83;21028;-55
2021/11/21 02:50:23;;;;;;;84.42;43.10;;;;;;;0.82;80.01;94295.20;1690882;83;21130;-55
2021/11/21 02:52:51;;;;;;;85.90;44.55;;;;;;;0.95;80.20;94290.84;1685095;83;20973;-55
2021/11/21 02:55:18;;;;;;;83.95;46.70;;;;;;;1.02;79.59;94273.78;1695543;83;21037;-55
2021/11/21 02:57:46;;;;;;;77.30;40.98;;;;;;;1.03;79.60;94265.84;1701225;83;21111;-56
2021/11/21 03:00:15;;;;;;;85.75;42.85;;;;;;;1.06;79.37;94271.24;1696698;83;21106;-55
2021/11/21 03:02:44;;;;;;;78.17;41.35;;;;;;;1.01;79.31;94273.03;1687296;83;21569;-55
2021/11/21 03:05:11;;;;;;;75.55;42.10;;;;;;;1.02;79.56;94255.61;1681502;83;20965;-56
2021/11/21 03:07:40;;;;;;;77.78;45.20;;;;;;;1.00;79.51;94247.09;1671826;83;20985;-55
2021/11/21 03:10:09;;;;;;;89.87;48.33;;;;;;;0.98;79.38;94241.91;1696314;83;21508;-55
2021/11/21 03:12:36;;;;;;;92.85;49.18;;;;;;;0.94;79.63;94240.56;1696442;83;21515;-55
2021/11/21 03:15:04;;;;;;;86.17;48.33;;;;;;;0.98;79.89;94237.84;1684705;83;21151;-55
2021/11/21 03:17:33;;;;;;;79.53;44.30;;;;;;;1.06;80.02;94236.61;1686272;83;21044;-56
2021/11/21 03:20:01;;;;;;;78.70;41.40;;;;;;;1.08;79.58;94225.57;1707250;83;21546;-55
2021/11/21 03:22:28;;;;;;;72.25;40.95;;;;;;;1.09;79.31;94220.91;1686068;83;21020;-55
2021/11/21 03:24:56;;;;;;;77.47;40.43;;;;;;;1.06;79.26;94219.79;1701628;83;21004;-55
2021/11/21 03:27:23;;;;;;;62.10;34.55;;;;;;;1.11;79.38;94205.81;1691739;83;21147;-55
2021/11/21 03:29:52;;;;;;;63.98;35.90;;;;;;;1.16;79.00;94214.85;1683945;83;20968;-56
2021/11/21 03:32:19;;;;;;;53.70;32.30;;;;;;;1.12;78.64;94213.36;1704221;83;21098;-55
2021/11/21 03:34:47;;;;;;;48.13;31.17;;;;;;;1.02;78.52;94220.41;1694027;83;21069;-56
2021/11/21 03:37:14;;;;;;;50.23;29.95;;;;;;;0.88;78.57;94195.36;1682043;83;21033;-54
2021/11/21 03:39:41;;;;;;;55.63;29.77;;;;;;;0.80;79.21;94197.95;1690952;83;23230;-56
2021/11/21 03:42:09;;;;;;;46.65;28.00;;;;;;;0.75;79.46;94192.37;1677471;83;21107;-57
2021/11/21 03:44:36;;;;;;;48.13;30.05;;;;;;;0.73;79.60;94182.53;1682782;83;21132;-56
2021/11/21 03:47:04;;;;;;;49.63;28.52;;;;;;;0.73;79.95;94171.70;1694619;83;21024;-56
2021/11/21 03:49:31;;;;;;;41.18;24.05;;;;;;;0.70;79.82;94167.66;1680391;83;21452;-55
2021/11/21 03:51:58;;;;;;;62.50;35.70;;;;;;;0.65;79.73;94169.45;1689868;83;21113;-58
2021/11/21 03:54:26;;;;;;;78.15;40.60;;;;;;;0.54;79.89;94160.05;1689294;83;21087;-56
2021/11/21 03:56:53;;;;;;;70.22;39.10;;;;;;;0.42;79.93;94160.52;1679115;83;21020;-55
2021/11/21 03:59:20;;;;;;;82.22;40.33;;;;;;;0.40;80.18;94152.63;1687028;83;20985;-56
2021/11/21 04:01:48;;;;;;;81.57;46.30;;;;;;;0.40;80.49;94157.44;1698986;83;21047;-57
2021/11/21 04:04:18;;;;;;;80.30;45.12;;;;;;;0.44;80.59;94155.48;1702377;83;21159;-55
2021/11/21 04:06:46;;;;;;;97.35;53.20;;;;;;;0.43;80.25;94151.23;1680615;83;20988;-55
2021/11/21 04:09:13;;;;;;;95.90;49.40;;;;;;;0.41;80.47;94144.10;1667165;85;21080;-55
2021/11/21 04:11:40;;;;;;;93.67;49.50;;;;;;;0.41;80.32;94145.45;1682371;83;21088;-55
2021/11/21 04:14:08;;;;;;;87.53;43.28;;;;;;;0.41;80.38;94149.52;1697270;83;20960;-56
2021/11/21 04:16:35;;;;;;;85.55;42.08;;;;;;;0.40;80.21;94134.45;1686105;83;21166;-55
2021/11/21 04:19:04;;;;;;;80.17;43.60;;;;;;;0.39;80.37;94144.33;1713235;83;21063;-56
2021/11/21 04:21:31;;;;;;;68.78;35.98;;;;;;;0.44;80.67;94144.66;1704643;83;21013;-55
2021/11/21 04:23:58;;;;;;;64.10;35.83;;;;;;;0.48;80.60;94137.30;1694842;83;21640;-55
2021/11/21 04:26:26;;;;;;;64.40;37.42;;;;;;;0.51;80.29;94131.09;1703677;83;20987;-54
2021/11/21 04:28:53;;;;;;;58.35;34.08;;;;;;;0.49;80.28;94122.61;1706847;83;21972;-55
2021/11/21 04:31:21;;;;;;;46.83;27.10;;;;;;;0.47;80.08;94125.52;1682753;83;21072;-55
2021/11/21 04:33:48;;;;;;;42.40;24.43;;;;;;;0.45;80.29;94128.61;1707184;83;21439;-56
2021/11/21 04:36:16;;;;;;;30.80;19.07;;;;;;;0.42;80.27;94128.05;1682235;83;21072;-55
2021/11/21 04:38:45;;;;;;;34.03;19.40;;;;;;;0.41;80.71;94131.93;1688512;83;21206;-57
2021/11/21 04:41:12;;;;;;;29.52;19.48;;;;;;;0.46;81.18;94130.17;1703238;83;21885;-56
2021/11/21 04:43:40;;;;;;;29.82;17.80;;;;;;;0.49;81.37;94121.26;1700737;83;20972;-57
2021/11/21 04:46:07;;;;;;;35.00;20.08;;;;;;;0.51;81.45;94127.03;1700787;83;21207;-55
2021/11/21 04:48:34;;;;;;;36.25;20.35;;;;;;;0.52;81.60;94128.57;1692062;83;21511;-55
2021/11/21 04:51:01;;;;;;;37.67;24.87;;;;;;;0.55;81.54;94121.01;1698684;83;21008;-59
2021/11/21 04:53:29;;;;;;;79.77;43.65;;;;;;;0.53;81.83;94116.58;1702408;83;21064;-55
2021/11/21 04:55:56;;;;;;;94.50;49.45;;;;;;;0.58;82.33;94119.45;1686310;83;21107;-55
2021/11/21 04:58:24;;;;;;;104.47;54.53;;;;;;;0.67;83.15;94112.41;1696425;83;21064;-56
2021/11/21 05:00:51;;;;;;;185.35;91.28;;;;;;;0.86;84.31;94111.86;1694013;83;20977;-56
2021/11/21 05:03:18;;;;;;;151.15;75.83;;;;;;;1.02;84.07;94104.54;1681115;83;20976;-56
2021/11/21 05:05:46;;;;;;;144.15;74.10;;;;;;;1.11;84.20;94100.19;1685584;83;21977;-56
2021/11/21 05:08:15;;;;;;;115.35;62.67;;;;;;;1.22;84.20;94103.56;1688896;83;21163;-55
2021/11/21 05:10:42;;;;;;;113.65;58.25;;;;;;;1.25;83.57;94097.34;1698150;83;21102;-56
2021/11/21 05:13:10;;;;;;;101.80;56.37;;;;;;;1.28;83.40;94087.65;1681811;83;21560;-56
2021/11/21 05:15:38;;;;;;;99.95;53.98;;;;;;;1.33;83.47;94091.26;1688037;83;21041;-56
2021/11/21 05:18:05;;;;;;;102.45;59.00;;;;;;;1.42;83.97;94082.83;1695488;84;21174;-56
2021/11/21 05:20:32;;;;;;;102.72;57.40;;;;;;;1.54;83.92;94088.30;1688553;83;21197;-57
2021/11/21 05:22:59;;;;;;;81.53;46.45;;;;;;;1.64;83.74;94083.31;1689367;83;20993;-58
2021/11/21 05:25:26;;;;;;;51.23;32.78;;;;;;;1.72;83.99;94076.05;1703720;83;22536;-55
2021/11/21 05:27:53;;;;;;;48.45;28.57;;;;;;;1.87;84.95;94084.96;1689328;83;21103;-56
2021/11/21 05:30:21;;;;;;;64.10;38.20;;;;;;;2.09;85.49;94086.77;1706028;83;21151;-55
2021/11/21 05:32:49;;;;;;;61.45;36.50;;;;;;;2.28;85.37;94083.39;1708495;83;21004;-56
2021/11/21 05:35:17;;;;;;;67.62;41.85;;;;;;;2.42;85.20;94083.19;1686023;83;21123;-56
2021/11/21 05:37:48;;;;;;;66.60;42.78;;;;;;;2.56;85.67;94074.83;1685435;83;21567;-56
2021/11/21 05:40:16;;;;;;;55.52;34.00;;;;;;;2.74;85.87;94072.59;1684562;83;21096;-56
2021/11/21 05:42:44;;;;;;;57.48;36.75;;;;;;;2.88;85.75;94081.86;1683309;83;21709;-55
2021/11/21 05:45:11;;;;;;;48.00;31.15;;;;;;;3.00;85.56;94078.53;1691107;83;21020;-56
2021/11/21 05:47:40;;;;;;;53.52;32.65;;;;;;;3.14;85.30;94089.94;1683330;83;21024;-55
2021/11/21 05:50:12;;;;;;;33.58;22.77;;;;;;;3.26;84.87;94089.91;1706821;83;21003;-57
2021/11/21 05:52:37;;;;;;;42.43;32.42;;;;;;;3.35;85.18;94090.12;1696984;83;21436;-56
2021/11/21 05:55:05;;;;;;;14.68;11.83;;;;;;;3.55;85.33;94097.86;1694848;83;21273;-56
2021/11/21 05:57:32;;;;;;;17.80;13.88;;;;;;;3.79;85.98;94095.27;1693852;83;21091;-57
2021/11/21 05:59:59;;;;;;;25.37;16.67;;;;;;;4.14;85.36;94089.09;1694221;83;21048;-57
2021/11/21 06:02:26;;;;;;;19.60;14.68;;;;;;;4.34;83.94;94089.80;1687500;83;21107;-56
2021/11/21 06:04:55;;;;;;;23.02;17.30;;;;;;;4.42;83.82;94089.05;1695845;83;21001;-56
2021/11/21 06:07:22;;;;;;;24.00;17.65;;;;;;;4.48;83.15;94079.95;1672870;83;21985;-56
2021/11/21 06:09:50;;;;;;;24.80;16.95;;;;;;;4.61;83.30;94089.58;1700288;83;20973;-56
2021/11/21 06:12:17;;;;;;;31.45;19.42;;;;;;;4.81;82.66;94086.92;1699026;83;21004;-57
2021/11/21 06:14:45;;;;;;;43.75;25.30;;;;;;;5.02;82.27;94082.92;1694334;83;21104;-57
2021/11/21 06:17:12;;;;;;;88.03;47.00;;;;;;;5.15;81.16;94085.87;1703966;83;20986;-57
2021/11/21 06:19:40;;;;;;;46.95;30.37;;;;;;;5.24;81.02;94068.33;1697738;83;21158;-58
2021/11/21 06:22:07;;;;;;;53.58;30.05;;;;;;;5.41;80.60;94071.19;1698315;83;21013;-57
2021/11/21 06:24:35;;;;;;;43.95;25.77;;;;;;;5.70;80.04;94065.11;1693881;83;21009;-58
2021/11/21 06:27:03;;;;;;;19.60;14.63;;;;;;;5.94;79.36;94063.08;1694710;83;21055;-56
2021/11/21 06:29:31;;;;;;;23.18;14.95;;;;;;;6.15;78.55;94055.63;1694732;83;21432;-57
2021/11/21 06:31:58;;;;;;;15.45;13.43;;;;;;;6.36;77.80;94054.23;1694420;83;21099;-58
2021/11/21 06:34:25;;;;;;;36.42;29.75;;;;;;;6.60;77.02;94054.84;1681629;83;21088;-57
2021/11/21 06:36:52;;;;;;;26.17;17.98;;;;;;;6.82;76.43;94053.55;1687874;83;21096;-57
2021/11/21 06:39:20;;;;;;;14.65;10.40;;;;;;;6.95;75.76;94054.30;1695829;83;21020;-58
2021/11/21 06:41:47;;;;;;;18.67;14.10;;;;;;;7.06;75.29;94047.89;1675195;83;21182;-57
2021/11/21 06:44:14;;;;;;;20.23;14.10;;;;;;;7.14;74.87;94047.95;1679517;83;21102;-57
2021/11/21 06:46:42;;;;;;;17.17;12.75;;;;;;;7.24;74.53;94055.05;1677364;83;20981;-57
2021/11/21 06:49:09;;;;;;;16.02;11.30;;;;;;;7.37;73.89;94047.55;1673606;83;21088;-57
2021/11/21 06:51:41;;;;;;;15.05;11.10;;;;;;;7.49;73.42;94055.58;1695433;83;21178;-57
2021/11/21 06:54:09;;;;;;;11.38;7.47;;;;;;;7.59;72.71;94055.20;1677360;83;21167;-56
2021/11/21 06:56:37;;;;;;;11.10;7.35;;;;;;;7.70;72.26;94043.88;1675741;83;21818;-57
2021/11/21 06:59:04;;;;;;;8.10;7.28;;;;;;;7.82;71.78;94041.08;1669292;83;21044;-58
2021/11/21 07:01:32;;;;;;;10.20;8.75;;;;;;;7.97;70.75;94042.09;1652793;84;21041;-57
2021/11/21 07:03:59;;;;;;;9.80;8.08;;;;;;;8.14;70.14;94035.19;1675070;83;21005;-56
2021/11/21 07:06:39;;;;;;;16.62;12.53;;;;;;;8.36;69.32;94030.45;1704307;83;21181;-57
2021/11/21 07:09:09;;;;;;;16.73;12.53;;;;;;;8.57;68.34;94036.48;1693127;83;21170;-58
2021/11/21 07:11:36;;;;;;;6.55;5.65;;;;;;;8.79;66.70;94026.81;1673002;83;21167;-57
2021/11/21 07:14:03;;;;;;;7.12;6.17;;;;;;;8.98;65.93;94024.43;1699643;83;21087;-57
2021/11/21 07:16:30;;;;;;;11.43;9.18;;;;;;;9.15;65.46;94016.67;1689027;83;21440;-57
2021/11/21 07:18:58;;;;;;;7.53;6.75;;;;;;;9.28;64.77;94014.56;1679066;83;20969;-63
2021/11/21 07:21:25;;;;;;;9.28;7.30;;;;;;;9.37;63.96;94022.20;1692740;83;21159;-58
2021/11/21 07:23:52;;;;;;;13.70;11.85;;;;;;;9.51;63.84;94029.06;1691879;83;21071;-57
2021/11/21 07:26:19;;;;;;;6.58;5.90;;;;;;;9.60;63.59;94030.45;1704987;83;21126;-56
2021/11/21 07:28:47;;;;;;;5.20;4.70;;;;;;;9.68;62.79;94037.92;1687062;83;21048;-60
2021/11/21 07:31:14;;;;;;;6.08;5.47;;;;;;;9.77;62.15;94039.28;1689693;83;20953;-57
2021/11/21 07:33:41;;;;;;;5.90;4.65;;;;;;;9.85;61.17;94025.41;1692906;83;21148;-58
2021/11/21 07:36:09;;;;;;;5.45;5.05;;;;;;;9.95;60.83;94041.27;1713357;83;20992;-57
2021/11/21 07:38:36;;;;;;;10.65;8.35;;;;;;;10.06;60.28;94036.08;1705723;83;21000;-57
2021/11/21 07:41:03;;;;;;;7.08;6.35;;;;;;;10.17;59.77;94043.24;1698138;83;21058;-56
2021/11/21 07:43:31;;;;;;;9.85;8.23;;;;;;;10.24;59.81;94040.16;1686724;83;21716;-58
2021/11/21 07:46:00;;;;;;;6.92;6.00;;;;;;;10.31;59.46;94032.36;1687823;83;21799;-57
2021/11/21 07:48:30;;;;;;;9.63;7.35;;;;;;;10.37;59.20;94018.13;1694821;83;21088;-58
2021/11/21 07:50:57;;;;;;;9.28;5.40;;;;;;;10.41;58.96;94016.59;1680473;83;21075;-57
2021/11/21 07:53:24;;;;;;;9.10;7.78;;;;;;;10.48;59.37;94019.01;1665924;84;21567;-58
2021/11/21 07:55:54;;;;;;;16.30;9.90;;;;;;;10.54;59.18;94026.80;1701248;83;21076;-59
2021/11/21 07:58:21;;;;;;;8.00;5.60;;;;;;;10.59;59.18;94019.28;1693464;83;21128;-58
2021/11/21 08:00:48;;;;;;;9.45;7.55;;;;;;;10.65;58.64;94021.55;1700700;83;21552;-57
2021/11/21 08:03:16;;;;;;;8.28;7.08;;;;;;;10.71;58.56;94019.70;1658830;83;21111;-57
2021/11/21 08:05:43;;;;;;;8.33;5.62;;;;;;;10.77;58.62;94023.48;1697363;83;21163;-58
2021/11/21 08:08:10;;;;;;;7.00;6.08;;;;;;;10.86;58.52;94028.95;1709504;83;21435;-58
2021/11/21 08:10:38;;;;;;;7.85;6.22;;;;;;;10.95;57.56;94024.77;1704942;83;21681;-58
2021/11/21 08:13:06;;;;;;;6.95;6.25;;;;;;;11.03;57.50;94026.56;1695590;83;21096;-62
2021/11/21 08:15:37;;;;;;;5.72;5.15;;;;;;;11.06;56.97;94026.41;1688037;83;21052;-56
2021/11/21 08:18:04;;;;;;;7.00;5.95;;;;;;;11.10;56.79;94021.48;1687736;83;21060;-60
2021/11/21 08:20:31;;;;;;;7.35;5.83;;;;;;;11.16;56.49;94027.86;1679680;83;21043;-67
2021/11/21 08:22:59;;;;;;;5.37;4.87;;;;;;;11.25;56.46;94031.95;1681980;83;21201;-58
2021/11/21 08:25:26;;;;;;;6.92;4.80;;;;;;;11.34;55.99;94033.25;1694025;83;21464;-57
2021/11/21 08:27:53;;;;;;;6.12;4.47;;;;;;;11.44;56.08;94038.09;1671694;84;21073;-57
2021/11/21 08:30:21;;;;;;;4.47;3.77;;;;;;;11.53;55.99;94038.78;1680632;83;21214;-57
2021/11/21 08:32:48;;;;;;;4.22;3.87;;;;;;;11.65;55.31;94043.33;1642797;83;20948;-58
2021/11/21 08:35:15;;;;;;;6.55;3.72;;;;;;;11.75;54.71;94046.14;1656814;84;21205;-58
2021/11/21 08:37:43;;;;;;;5.87;4.55;;;;;;;11.86;54.30;94044.25;1669613;83;21163;-59
2021/11/21 08:40:11;;;;;;;8.13;4.20;;;;;;;12.04;54.07;94025.55;1673422;83;20968;-59
2021/11/21 08:42:38;;;;;;;3.72;3.40;;;;;;;12.31;53.38;94032.19;1698176;83;21095;-58
2021/11/21 08:45:07;;;;;;;7.60;5.00;;;;;;;12.60;51.70;94029.41;1691937;83;21065;-59
2021/11/21 08:47:36;;;;;;;4.00;3.60;;;;;;;12.77;51.39;94011.13;1696259;83;21101;-57
2021/11/21 08:50:06;;;;;;;5.75;3.92;;;;;;;12.84;50.24;94012.09;1692138;83;21085;-59
2021/11/21 08:52:35;;;;;;;3.65;3.35;;;;;;;12.75;50.19;94030.16;1697082;83;21532;-59
2021/11/21 08:55:04;;;;;;;5.42;4.92;;;;;;;12.64;50.07;94024.45;1685495;83;21544;-58
2021/11/21 08:57:32;;;;;;;3.92;3.62;;;;;;;12.58;50.51;94036.03;1661288;83;21029;-57
2021/11/21 09:00:05;;;;;;;3.62;3.33;;;;;;;12.52;50.61;94033.80;1672918;83;21449;-59
2021/11/21 09:02:29;;;;;;;4.22;3.83;;;;;;;12.48;50.49;94033.21;1690783;83;21020;-58
2021/11/21 09:04:56;;;;;;;4.75;3.22;;;;;;;12.35;50.42;94030.00;1702455;83;21017;-58
2021/11/21 09:07:24;;;;;;;15.72;5.45;;;;;;;12.20;51.25;94034.73;1691625;83;21109;-58
2021/11/21 09:09:52;;;;;;;3.30;3.00;;;;;;;12.08;51.91;94031.63;1672696;84;20972;-58
2021/11/21 09:12:19;;;;;;;5.25;4.30;;;;;;;11.97;51.69;94040.31;1679428;84;21464;-58
2021/11/21 09:14:47;;;;;;;5.42;4.35;;;;;;;11.86;52.22;94032.59;1683729;83;20965;-58
2021/11/21 09:17:15;;;;;;;7.35;5.40;;;;;;;11.80;52.56;94031.73;1694485;83;21000;-58
2021/11/21 09:19:42;;;;;;;21.48;4.55;;;;;;;11.83;52.67;94027.26;1699110;83;20997;-59
2021/11/21 09:22:09;;;;;;;7.90;7.08;;;;;;;11.87;52.59;94025.10;1713002;83;21532;-58
2021/11/21 09:24:36;;;;;;;5.45;4.95;;;;;;;11.98;52.58;94021.94;1683872;83;21131;-58
2021/11/21 09:27:05;;;;;;;7.95;5.10;;;;;;;12.17;52.22;94026.65;1696198;83;21016;-57
2021/11/21 09:29:33;;;;;;;4.47;3.83;;;;;;;12.35;52.10;94021.73;1695687;83;21103;-58
2021/11/21 09:32:00;;;;;;;4.90;3.60;;;;;;;12.57;50.78;94011.05;1687951;83;21533;-58
2021/11/21 09:34:28;;;;;;;11.15;7.15;;;;;;;12.80;50.47;94014.30;1681472;83;21017;-58
2021/11/21 09:36:55;;;;;;;13.00;9.53;;;;;;;12.96;50.53;94008.30;1703928;83;21137;-58
2021/11/21 09:39:22;;;;;;;12.95;5.37;;;;;;;13.17;50.16;93995.44;1689871;83;21514;-58
2021/11/21 09:41:50;;;;;;;4.10;3.70;;;;;;;13.25;49.60;93999.94;1687547;83;21012;-58
2021/11/21 09:44:18;;;;;;;4.30;3.83;;;;;;;13.14;49.66;93997.79;1675031;83;21698;-59
2021/11/21 09:46:45;;;;;;;3.92;3.52;;;;;;;13.05;49.98;93990.25;1713320;83;21571;-58
2021/11/21 09:49:15;;;;;;;4.12;3.70;;;;;;;12.97;50.06;93982.21;1705734;83;21163;-58
2021/11/21 09:51:42;;;;;;;4.53;4.12;;;;;;;12.94;50.02;93976.28;1663882;83;21037;-59
2021/11/21 09:54:09;;;;;;;7.08;4.87;;;;;;;12.97;49.89;93967.03;1677824;83;21001;-57
2021/11/21 09:56:36;;;;;;;10.20;6.92;;;;;;;13.15;49.97;93970.92;1710792;83;21051;-58
2021/11/21 09:59:03;;;;;;;4.50;4.10;;;;;;;13.36;49.01;93968.30;1713208;83;21552;-59
2021/11/21 10:01:40;;;;;;;4.90;3.98;;;;;;;13.43;48.76;93962.38;1671950;84;21123;-58
2021/11/21 10:04:11;;;;;;;8.80;4.60;;;;;;;13.53;48.65;93957.61;1686714;83;20969;-58
2021/11/21 10:06:45;;;;;;;8.45;4.00;;;;;;;13.82;48.78;93960.81;1694905;83;20977;-58
2021/11/21 10:09:10;;;;;;;4.28;3.87;;;;;;;14.14;47.41;93951.34;1691778;83;20985;-59
2021/11/21 10:12:04;;;;;;;3.37;3.08;;;;;;;14.29;46.57;93950.00;1676264;84;21023;-57
2021/11/21 10:14:32;;;;;;;12.60;8.38;;;;;;;14.34;46.52;93948.54;1703862;83;21144;-59
2021/11/21 10:16:59;;;;;;;12.40;8.53;;;;;;;14.59;46.10;93945.73;1660007;84;21500;-58
2021/11/21 10:19:27;;;;;;;6.67;4.53;;;;;;;14.89;45.80;93935.25;1689332;83;21052;-58
2021/11/21 10:21:57;;;;;;;6.65;4.58;;;;;;;15.10;44.80;93938.02;1680699;84;21052;-58
2021/11/21 10:24:31;;;;;;;5.50;4.87;;;;;;;15.10;44.24;93942.17;1689517;83;21037;-61
2021/11/21 10:27:11;;;;;;;5.40;4.70;;;;;;;15.16;44.15;93945.72;1676053;83;21174;-58
2021/11/21 10:29:48;;;;;;;5.87;5.25;;;;;;;15.36;43.93;93941.44;1688828;83;21567;-57
2021/11/21 10:32:33;;;;;;;5.80;4.47;;;;;;;15.49;43.38;93943.76;1681861;83;21519;-59
2021/11/21 10:35:07;;;;;;;4.17;2.70;;;;;;;15.82;42.44;93946.66;1678214;83;21040;-57
2021/11/21 10:37:38;;;;;;;4.10;3.35;;;;;;;15.99;41.62;93932.98;1675656;83;21059;-58
2021/11/21 10:40:12;;;;;;;2.85;2.58;;;;;;;15.97;41.39;93936.88;1671018;83;21630;-59
2021/11/21 10:42:42;;;;;;;4.30;3.90;;;;;;;16.00;41.70;93932.33;1701232;83;20993;-59
2021/11/21 10:45:11;;;;;;;3.35;2.60;;;;;;;16.02;41.95;93941.68;1685944;83;21206;-58
2021/11/21 10:47:55;;;;;;;3.10;2.37;;;;;;;16.08;41.45;93934.12;1684071;83;21060;-59
2021/11/21 10:50:33;;;;;;;;;;;;;;;16.31;41.06;93930.11;1698875;83;21421;-57
2021/11/21 10:53:03;;;;;;;2.20;2.00;;;;;;;16.39;40.11;93915.90;1680832;83;21966;-58
2021/11/21 10:55:30;;;;;;;4.42;2.20;;;;;;;16.28;40.54;93918.63;1679829;83;21015;-58
2021/11/21 10:58:13;;;;;;;9.20;3.30;;;;;;;16.18;40.34;93913.20;1673871;83;21075;-59
2021/11/21 11:00:41;;;;;;;2.55;1.98;;;;;;;16.37;40.23;93912.88;1689858;83;21548;-58
2021/11/21 11:03:20;;;;;;;2.42;2.22;;;;;;;16.58;39.24;93912.74;1676912;84;20980;-58
2021/11/21 11:05:48;;;;;;;4.20;2.08;;;;;;;16.72;39.65;93907.56;1663940;83;21169;-57
2021/11/21 11:08:27;;;;;;;1.50;1.40;;;;;;;17.14;37.96;93908.63;1691778;83;21061;-58
2021/11/21 11:10:55;;;;;;;4.60;2.15;;;;;;;17.28;37.96;93899.98;1700100;83;21143;-64
2021/11/21 11:13:24;;;;;;;3.15;1.90;;;;;;;17.29;37.83;93902.14;1679630;83;21046;-60
2021/11/21 11:15:55;;;;;;;2.00;1.80;;;;;;;17.53;37.22;93897.53;1706016;83;21258;-60
2021/11/21 11:18:26;;;;;;;1.70;1.55;;;;;;;18.03;36.60;93895.87;1713399;83;21488;-61
2021/11/21 11:20:56;;;;;;;7.75;1.40;;;;;;;18.45;35.43;93889.91;1692011;83;21020;-59
2021/11/21 11:23:23;;;;;;;1.98;1.77;;;;;;;18.88;34.33;93891.44;1689402;83;21124;-59
2021/11/21 11:25:53;;;;;;;4.33;2.17;;;;;;;19.24;33.81;93895.05;1656749;84;21204;-58
2021/11/21 11:28:33;;;;;;;2.67;2.40;;;;;;;19.66;33.41;93894.30;1688490;83;21020;-58
2021/11/21 11:31:04;;;;;;;6.55;3.65;;;;;;;20.08;32.78;93892.11;1679775;83;21138;-61
2021/11/21 11:33:36;;;;;;;5.70;2.40;;;;;;;20.52;32.66;93894.27;1650084;84;21104;-58
2021/11/21 11:36:11;;;;;;;7.62;4.95;;;;;;;21.07;31.76;93887.79;1693108;83;21068;-57